sensor_id;sensor_type;location;lat;lon;timestamp;pressure;altitude;pressure_sealevel;temperature;humidity
8059;BME280;4072;42.668;23.396;2023-05-23T00:02:22;95015.34;;;12.50;100.00
8059;BME280;4072;42.668;23.396;2023-05-23T00:04:50;95014.47;;;12.44;100.00
8059;BME280;4072;42.668;23.396;2023-05-23T00:07:24;95000.66;;;12.33;100.00
8059;BME280;4072;42.668;23.396;2023-05-23T00:09:53;95009.38;;;12.37;100.00
8059;BME280;4072;42.668;23.396;2023-05-23T00:12:22;95001.84;;;12.41;100.00
8059;BME280;4072;42.668;23.396;2023-05-23T00:14:50;95007.28;;;12.32;100.00
8059;BME280;4072;42.668;23.396;2023-05-23T00:17:21;95001.72;;;12.35;100.00
8059;BME280;4072;42.668;23.396;2023-05-23T00:19:51;95003.03;;;12.40;100.00
8059;BME280;4072;42.668;23.396;2023-05-23T00:22:21;95002.09;;;12.43;100.00
8059;BME280;4072;42.668;23.396;2023-05-23T00:24:49;94994.28;;;12.45;100.00
8059;BME280;4072;42.668;23.396;2023-05-23T00:27:17;94992.47;;;12.42;100.00
8059;BME280;4072;42.668;23.396;2023-05-23T00:29:46;94993.13;;;12.37;100.00
8059;BME280;4072;42.668;23.396;2023-05-23T00:32:14;94991.00;;;12.32;100.00
8059;BME280;4072;42.668;23.396;2023-05-23T00:34:42;94990.13;;;12.26;100.00
8059;BME280;4072;42.668;23.396;2023-05-23T00:37:11;94979.00;;;12.24;100.00
8059;BME280;4072;42.668;23.396;2023-05-23T00:39:39;94953.63;;;12.03;100.00
8059;BME280;4072;42.668;23.396;2023-05-23T00:42:07;94984.75;;;12.17;100.00
8059;BME280;4072;42.668;23.396;2023-05-23T00:44:35;94909.34;;;11.55;100.00
8059;BME280;4072;42.668;23.396;2023-05-23T00:47:06;94982.69;;;12.12;100.00
8059;BME280;4072;42.668;23.396;2023-05-23T00:49:34;94990.19;;;12.17;100.00
8059;BME280;4072;42.668;23.396;2023-05-23T00:52:03;94984.16;;;12.13;100.00
8059;BME280;4072;42.668;23.396;2023-05-23T00:54:31;94948.81;;;11.98;100.00
8059;BME280;4072;42.668;23.396;2023-05-23T00:57:00;94969.13;;;12.03;100.00
8059;BME280;4072;42.668;23.396;2023-05-23T00:59:28;94978.50;;;12.02;100.00
8059;BME280;4072;42.668;23.396;2023-05-23T01:01:57;94986.00;;;12.07;100.00
8059;BME280;4072;42.668;23.396;2023-05-23T01:04:27;94946.38;;;11.67;100.00
8059;BME280;4072;42.668;23.396;2023-05-23T01:06:56;94980.63;;;11.98;100.00
8059;BME280;4072;42.668;23.396;2023-05-23T01:09:26;94949.66;;;11.71;100.00
8059;BME280;4072;42.668;23.396;2023-05-23T01:12:17;94982.72;;;11.93;100.00
8059;BME280;4072;42.668;23.396;2023-05-23T01:14:51;94981.81;;;11.97;100.00
8059;BME280;4072;42.668;23.396;2023-05-23T01:17:26;94892.22;;;11.40;100.00
8059;BME280;4072;42.668;23.396;2023-05-23T01:20:03;94973.41;;;11.95;100.00
8059;BME280;4072;42.668;23.396;2023-05-23T01:22:53;94974.63;;;11.84;100.00
8059;BME280;4072;42.668;23.396;2023-05-23T01:28:28;94998.13;;;11.60;100.00
8059;BME280;4072;42.668;23.396;2023-05-23T01:31:00;94995.59;;;11.48;100.00
8059;BME280;4072;42.668;23.396;2023-05-23T01:33:31;94990.97;;;11.30;100.00
8059;BME280;4072;42.668;23.396;2023-05-23T01:36:01;94928.41;;;10.92;100.00
8059;BME280;4072;42.668;23.396;2023-05-23T01:38:29;94978.88;;;11.40;100.00
8059;BME280;4072;42.668;23.396;2023-05-23T01:40:57;94995.31;;;11.37;100.00
8059;BME280;4072;42.668;23.396;2023-05-23T01:43:26;94961.16;;;11.30;100.00
8059;BME280;4072;42.668;23.396;2023-05-23T01:45:55;94934.41;;;11.14;100.00
8059;BME280;4072;42.668;23.396;2023-05-23T01:48:25;94982.50;;;11.46;100.00
8059;BME280;4072;42.668;23.396;2023-05-23T01:50:54;94928.97;;;11.14;100.00
8059;BME280;4072;42.668;23.396;2023-05-23T01:53:23;94972.88;;;11.36;100.00
8059;BME280;4072;42.668;23.396;2023-05-23T01:55:52;94981.94;;;11.24;100.00
8059;BME280;4072;42.668;23.396;2023-05-23T01:58:20;94977.09;;;11.19;100.00
8059;BME280;4072;42.668;23.396;2023-05-23T02:00:49;94966.91;;;11.05;100.00
8059;BME280;4072;42.668;23.396;2023-05-23T02:03:18;94989.00;;;11.04;100.00
8059;BME280;4072;42.668;23.396;2023-05-23T02:05:46;94988.41;;;11.18;100.00
8059;BME280;4072;42.668;23.396;2023-05-23T02:08:14;94981.47;;;11.17;100.00
8059;BME280;4072;42.668;23.396;2023-05-23T02:10:42;94981.19;;;10.97;100.00
8059;BME280;4072;42.668;23.396;2023-05-23T02:13:10;94974.38;;;10.83;100.00
8059;BME280;4072;42.668;23.396;2023-05-23T02:15:38;94992.16;;;11.02;100.00
8059;BME280;4072;42.668;23.396;2023-05-23T02:18:08;95000.56;;;11.04;100.00
8059;BME280;4072;42.668;23.396;2023-05-23T02:20:36;94992.75;;;11.06;100.00
8059;BME280;4072;42.668;23.396;2023-05-23T02:23:04;94981.34;;;11.02;100.00
8059;BME280;4072;42.668;23.396;2023-05-23T02:25:32;94989.72;;;10.86;100.00
8059;BME280;4072;42.668;23.396;2023-05-23T02:28:00;94981.91;;;10.79;100.00
8059;BME280;4072;42.668;23.396;2023-05-23T02:30:28;94962.03;;;10.64;100.00
8059;BME280;4072;42.668;23.396;2023-05-23T02:32:56;94984.31;;;10.86;100.00
8059;BME280;4072;42.668;23.396;2023-05-23T02:35:28;94979.06;;;10.83;100.00
8059;BME280;4072;42.668;23.396;2023-05-23T02:37:56;94979.38;;;10.94;100.00
8059;BME280;4072;42.668;23.396;2023-05-23T02:40:24;94977.72;;;10.96;100.00
8059;BME280;4072;42.668;23.396;2023-05-23T02:42:52;94972.00;;;10.85;100.00
8059;BME280;4072;42.668;23.396;2023-05-23T02:45:23;94962.22;;;10.97;100.00
8059;BME280;4072;42.668;23.396;2023-05-23T02:47:51;94979.47;;;10.72;100.00
8059;BME280;4072;42.668;23.396;2023-05-23T02:50:19;94971.84;;;10.80;100.00
8059;BME280;4072;42.668;23.396;2023-05-23T02:52:48;94976.34;;;10.92;100.00
8059;BME280;4072;42.668;23.396;2023-05-23T02:55:16;94967.19;;;10.89;100.00
8059;BME280;4072;42.668;23.396;2023-05-23T02:57:44;94974.69;;;10.85;100.00
8059;BME280;4072;42.668;23.396;2023-05-23T03:00:12;94969.72;;;10.66;100.00
8059;BME280;4072;42.668;23.396;2023-05-23T03:02:41;94943.06;;;10.37;100.00
8059;BME280;4072;42.668;23.396;2023-05-23T03:05:09;94966.97;;;10.48;100.00
8059;BME280;4072;42.668;23.396;2023-05-23T03:07:37;94974.38;;;10.56;100.00
8059;BME280;4072;42.668;23.396;2023-05-23T03:10:08;94971.34;;;10.54;100.00
8059;BME280;4072;42.668;23.396;2023-05-23T03:12:36;94967.44;;;10.46;100.00
8059;BME280;4072;42.668;23.396;2023-05-23T03:15:05;94963.50;;;10.38;100.00
8059;BME280;4072;42.668;23.396;2023-05-23T03:17:33;94958.06;;;10.29;100.00
8059;BME280;4072;42.668;23.396;2023-05-23T03:20:01;94988.13;;;10.31;100.00
8059;BME280;4072;42.668;23.396;2023-05-23T03:22:37;94960.09;;;10.07;100.00
8059;BME280;4072;42.668;23.396;2023-05-23T03:25:09;94987.47;;;10.27;100.00
8059;BME280;4072;42.668;23.396;2023-05-23T03:27:37;94990.19;;;10.27;100.00
8059;BME280;4072;42.668;23.396;2023-05-23T03:30:06;94999.16;;;10.15;100.00
8059;BME280;4072;42.668;23.396;2023-05-23T03:32:34;95006.41;;;10.18;100.00
8059;BME280;4072;42.668;23.396;2023-05-23T03:35:03;95009.13;;;10.27;100.00
8059;BME280;4072;42.668;23.396;2023-05-23T03:37:31;95007.63;;;10.26;100.00
8059;BME280;4072;42.668;23.396;2023-05-23T03:39:59;94928.41;;;9.68;100.00
8059;BME280;4072;42.668;23.396;2023-05-23T03:42:29;95000.50;;;10.11;100.00
8059;BME280;4072;42.668;23.396;2023-05-23T03:44:57;95017.28;;;10.36;100.00
8059;BME280;4072;42.668;23.396;2023-05-23T03:47:25;95017.28;;;10.36;100.00
8059;BME280;4072;42.668;23.396;2023-05-23T03:49:53;95015.91;;;10.32;100.00
8059;BME280;4072;42.668;23.396;2023-05-23T03:52:21;95017.00;;;10.43;100.00
8059;BME280;4072;42.668;23.396;2023-05-23T03:54:49;95013.22;;;10.41;100.00
8059;BME280;4072;42.668;23.396;2023-05-23T03:57:17;95021.22;;;10.53;100.00
8059;BME280;4072;42.668;23.396;2023-05-23T03:59:47;95036.28;;;10.63;100.00
8059;BME280;4072;42.668;23.396;2023-05-23T04:02:15;95023.94;;;10.53;100.00
8059;BME280;4072;42.668;23.396;2023-05-23T04:04:43;95029.63;;;10.46;100.00
8059;BME280;4072;42.668;23.396;2023-05-23T04:07:12;95021.84;;;10.57;100.00
8059;BME280;4072;42.668;23.396;2023-05-23T04:09:41;95027.38;;;10.54;100.00
8059;BME280;4072;42.668;23.396;2023-05-23T04:12:09;95028.94;;;10.73;100.00
8059;BME280;4072;42.668;23.396;2023-05-23T04:14:37;95025.63;;;10.78;100.00
8059;BME280;4072;42.668;23.396;2023-05-23T04:17:07;95025.06;;;10.83;100.00
8059;BME280;4072;42.668;23.396;2023-05-23T04:19:35;95013.16;;;10.71;100.00
8059;BME280;4072;42.668;23.396;2023-05-23T04:22:04;95018.88;;;10.82;100.00
8059;BME280;4072;42.668;23.396;2023-05-23T04:24:32;94996.00;;;10.65;100.00
8059;BME280;4072;42.668;23.396;2023-05-23T04:27:00;95026.09;;;10.67;100.00
8059;BME280;4072;42.668;23.396;2023-05-23T04:29:28;95032.13;;;10.89;100.00
8059;BME280;4072;42.668;23.396;2023-05-23T04:31:57;95037.22;;;10.78;100.00
8059;BME280;4072;42.668;23.396;2023-05-23T04:34:27;95033.03;;;10.86;100.00
8059;BME280;4072;42.668;23.396;2023-05-23T04:36:56;95036.03;;;10.97;100.00
8059;BME280;4072;42.668;23.396;2023-05-23T04:39:24;95032.16;;;11.07;100.00
8059;BME280;4072;42.668;23.396;2023-05-23T04:41:53;95044.78;;;11.10;100.00
8059;BME280;4072;42.668;23.396;2023-05-23T04:44:21;95039.38;;;11.10;100.00
8059;BME280;4072;42.668;23.396;2023-05-23T04:46:48;95011.97;;;10.90;100.00
8059;BME280;4072;42.668;23.396;2023-05-23T04:49:17;95027.94;;;10.97;100.00
8059;BME280;4072;42.668;23.396;2023-05-23T04:51:48;95028.38;;;11.14;100.00
8059;BME280;4072;42.668;23.396;2023-05-23T04:54:16;95036.06;;;11.24;100.00
8059;BME280;4072;42.668;23.396;2023-05-23T04:56:44;95030.66;;;11.24;100.00
8059;BME280;4072;42.668;23.396;2023-05-23T04:59:12;95042.69;;;11.14;100.00
8059;BME280;4072;42.668;23.396;2023-05-23T05:01:40;95025.53;;;10.99;100.00
8059;BME280;4072;42.668;23.396;2023-05-23T05:04:08;95001.75;;;10.94;100.00
8059;BME280;4072;42.668;23.396;2023-05-23T05:06:36;95040.00;;;11.23;100.00
8059;BME280;4072;42.668;23.396;2023-05-23T05:09:06;95050.22;;;11.28;100.00
8059;BME280;4072;42.668;23.396;2023-05-23T05:11:34;95051.44;;;11.27;100.00
8059;BME280;4072;42.668;23.396;2023-05-23T05:14:02;95051.25;;;11.31;100.00
8059;BME280;4072;42.668;23.396;2023-05-23T05:16:30;95043.59;;;11.47;100.00
8059;BME280;4072;42.668;23.396;2023-05-23T05:18:58;95049.47;;;11.55;100.00
8059;BME280;4072;42.668;23.396;2023-05-23T05:21:26;95052.31;;;11.42;100.00
8059;BME280;4072;42.668;23.396;2023-05-23T05:23:54;94967.63;;;10.79;100.00
8059;BME280;4072;42.668;23.396;2023-05-23T05:26:23;95014.72;;;11.17;100.00
8059;BME280;4072;42.668;23.396;2023-05-23T05:28:52;95049.63;;;11.42;100.00
8059;BME280;4072;42.668;23.396;2023-05-23T05:31:20;95053.09;;;11.43;100.00
8059;BME280;4072;42.668;23.396;2023-05-23T05:33:48;95033.97;;;11.37;100.00
8059;BME280;4072;42.668;23.396;2023-05-23T05:36:18;95047.22;;;11.71;100.00
8059;BME280;4072;42.668;23.396;2023-05-23T05:38:47;95048.38;;;11.98;100.00
8059;BME280;4072;42.668;23.396;2023-05-23T05:41:15;94913.94;;;11.04;100.00
8059;BME280;4072;42.668;23.396;2023-05-23T05:43:44;95058.28;;;12.19;100.00
8059;BME280;4072;42.668;23.396;2023-05-23T05:46:12;95046.09;;;12.47;100.00
8059;BME280;4072;42.668;23.396;2023-05-23T05:48:40;95043.25;;;12.74;100.00
8059;BME280;4072;42.668;23.396;2023-05-23T05:51:08;95039.84;;;12.97;100.00
8059;BME280;4072;42.668;23.396;2023-05-23T05:53:36;95023.88;;;12.90;100.00
8059;BME280;4072;42.668;23.396;2023-05-23T05:56:04;95024.38;;;12.79;100.00
8059;BME280;4072;42.668;23.396;2023-05-23T05:58:34;95031.69;;;13.20;100.00
8059;BME280;4072;42.668;23.396;2023-05-23T06:01:04;95010.06;;;13.64;100.00
8059;BME280;4072;42.668;23.396;2023-05-23T06:03:32;95018.59;;;14.44;100.00
8059;BME280;4072;42.668;23.396;2023-05-23T06:06:00;95008.41;;;14.94;100.00
8059;BME280;4072;42.668;23.396;2023-05-23T06:08:28;95010.09;;;15.31;100.00
8059;BME280;4072;42.668;23.396;2023-05-23T06:10:56;94999.06;;;15.60;100.00
8059;BME280;4072;42.668;23.396;2023-05-23T06:13:24;95004.81;;;15.93;100.00
8059;BME280;4072;42.668;23.396;2023-05-23T06:15:52;94971.38;;;15.67;100.00
8059;BME280;4072;42.668;23.396;2023-05-23T06:18:22;95007.25;;;16.11;100.00
8059;BME280;4072;42.668;23.396;2023-05-23T06:20:49;95013.47;;;16.17;100.00
8059;BME280;4072;42.668;23.396;2023-05-23T06:23:17;94996.31;;;16.11;100.00
8059;BME280;4072;42.668;23.396;2023-05-23T06:25:45;94960.13;;;15.60;100.00
8059;BME280;4072;42.668;23.396;2023-05-23T06:28:13;95012.50;;;15.44;100.00
8059;BME280;4072;42.668;23.396;2023-05-23T06:30:41;95007.19;;;15.15;100.00
8059;BME280;4072;42.668;23.396;2023-05-23T06:33:10;95012.81;;;15.11;100.00
8059;BME280;4072;42.668;23.396;2023-05-23T06:35:40;95013.56;;;14.92;100.00
8059;BME280;4072;42.668;23.396;2023-05-23T06:38:08;95019.59;;;15.16;100.00
8059;BME280;4072;42.668;23.396;2023-05-23T06:40:36;95000.53;;;15.36;100.00
8059;BME280;4072;42.668;23.396;2023-05-23T06:43:04;95008.66;;;15.56;100.00
8059;BME280;4072;42.668;23.396;2023-05-23T06:45:32;95020.03;;;15.74;100.00
8059;BME280;4072;42.668;23.396;2023-05-23T06:48:01;95010.06;;;15.71;100.00
8059;BME280;4072;42.668;23.396;2023-05-23T06:50:29;95010.16;;;15.17;100.00
8059;BME280;4072;42.668;23.396;2023-05-23T06:52:59;95013.59;;;15.12;100.00
8059;BME280;4072;42.668;23.396;2023-05-23T06:55:26;95015.94;;;15.64;100.00
8059;BME280;4072;42.668;23.396;2023-05-23T06:57:55;94954.84;;;16.07;100.00
8059;BME280;4072;42.668;23.396;2023-05-23T07:00:24;94996.84;;;16.46;100.00
8059;BME280;4072;42.668;23.396;2023-05-23T07:02:52;94979.69;;;16.40;100.00
8059;BME280;4072;42.668;23.396;2023-05-23T07:05:20;94998.63;;;16.91;100.00
8059;BME280;4072;42.668;23.396;2023-05-23T07:07:48;95006.75;;;17.22;100.00
8059;BME280;4072;42.668;23.396;2023-05-23T07:10:17;94994.84;;;17.31;100.00
8059;BME280;4072;42.668;23.396;2023-05-23T07:12:46;94992.63;;;17.35;100.00
8059;BME280;4072;42.668;23.396;2023-05-23T07:15:14;94950.63;;;17.32;100.00
8059;BME280;4072;42.668;23.396;2023-05-23T07:17:43;94994.94;;;17.48;100.00
8059;BME280;4072;42.668;23.396;2023-05-23T07:20:11;94992.34;;;17.27;100.00
8059;BME280;4072;42.668;23.396;2023-05-23T07:22:39;94983.44;;;17.32;100.00
8059;BME280;4072;42.668;23.396;2023-05-23T07:25:07;94981.31;;;17.64;100.00
8059;BME280;4072;42.668;23.396;2023-05-23T07:27:37;94969.38;;;17.78;100.00
8059;BME280;4072;42.668;23.396;2023-05-23T07:30:07;94972.09;;;17.62;100.00
8059;BME280;4072;42.668;23.396;2023-05-23T07:32:36;94968.59;;;17.56;100.00
8059;BME280;4072;42.668;23.396;2023-05-23T07:35:05;94956.13;;;17.43;100.00
8059;BME280;4072;42.668;23.396;2023-05-23T07:37:33;94960.66;;;17.58;100.00
8059;BME280;4072;42.668;23.396;2023-05-23T07:40:03;94960.22;;;18.09;100.00
8059;BME280;4072;42.668;23.396;2023-05-23T07:42:31;94927.34;;;17.87;100.00
8059;BME280;4072;42.668;23.396;2023-05-23T07:45:01;94959.72;;;17.94;100.00
8059;BME280;4072;42.668;23.396;2023-05-23T07:47:29;94952.75;;;18.04;100.00
8059;BME280;4072;42.668;23.396;2023-05-23T07:49:57;94953.50;;;18.10;100.00
8059;BME280;4072;42.668;23.396;2023-05-23T07:52:28;94958.72;;;17.97;100.00
8059;BME280;4072;42.668;23.396;2023-05-23T07:54:57;94934.56;;;18.28;100.00
8059;BME280;4072;42.668;23.396;2023-05-23T07:57:25;94947.53;;;18.39;100.00
8059;BME280;4072;42.668;23.396;2023-05-23T07:59:53;94958.44;;;18.72;100.00
8059;BME280;4072;42.668;23.396;2023-05-23T08:02:22;94937.81;;;18.60;100.00
8059;BME280;4072;42.668;23.396;2023-05-23T08:04:50;94940.06;;;18.39;100.00
8059;BME280;4072;42.668;23.396;2023-05-23T08:07:18;94949.28;;;18.53;100.00
8059;BME280;4072;42.668;23.396;2023-05-23T08:09:47;94955.25;;;18.24;100.00
8059;BME280;4072;42.668;23.396;2023-05-23T08:12:15;94947.28;;;18.04;100.00
8059;BME280;4072;42.668;23.396;2023-05-23T08:14:43;94950.00;;;18.15;100.00
8059;BME280;4072;42.668;23.396;2023-05-23T08:17:17;94926.59;;;17.86;100.00
8059;BME280;4072;42.668;23.396;2023-05-23T08:19:47;94948.97;;;17.68;100.00
8059;BME280;4072;42.668;23.396;2023-05-23T08:22:15;94951.97;;;17.81;100.00
8059;BME280;4072;42.668;23.396;2023-05-23T08:24:43;94942.53;;;17.88;100.00
8059;BME280;4072;42.668;23.396;2023-05-23T08:27:10;94930.84;;;17.76;100.00
8059;BME280;4072;42.668;23.396;2023-05-23T08:29:39;94948.28;;;18.01;100.00
8059;BME280;4072;42.668;23.396;2023-05-23T08:32:07;94948.28;;;18.01;100.00
8059;BME280;4072;42.668;23.396;2023-05-23T08:34:35;94948.03;;;18.21;100.00
8059;BME280;4072;42.668;23.396;2023-05-23T08:37:05;94943.78;;;18.31;100.00
8059;BME280;4072;42.668;23.396;2023-05-23T08:39:33;94938.81;;;18.24;100.00
8059;BME280;4072;42.668;23.396;2023-05-23T08:42:00;94942.03;;;18.06;100.00
8059;BME280;4072;42.668;23.396;2023-05-23T08:44:29;94948.75;;;18.05;100.00
8059;BME280;4072;42.668;23.396;2023-05-23T08:47:00;94941.81;;;18.37;100.00
8059;BME280;4072;42.668;23.396;2023-05-23T08:49:31;94945.28;;;18.43;100.00
8059;BME280;4072;42.668;23.396;2023-05-23T08:52:01;94945.78;;;18.47;100.00
8059;BME280;4072;42.668;23.396;2023-05-23T08:54:31;94934.78;;;18.69;100.00
8059;BME280;4072;42.668;23.396;2023-05-23T08:57:00;94937.47;;;18.91;100.00
8059;BME280;4072;42.668;23.396;2023-05-23T08:59:29;94889.25;;;18.49;100.00
8059;BME280;4072;42.668;23.396;2023-05-23T09:01:59;94861.63;;;18.53;100.00
8059;BME280;4072;42.668;23.396;2023-05-23T09:04:27;94932.59;;;19.19;100.00
8059;BME280;4072;42.668;23.396;2023-05-23T09:06:58;94931.91;;;19.64;100.00
8059;BME280;4072;42.668;23.396;2023-05-23T09:09:27;94940.38;;;20.01;100.00
8059;BME280;4072;42.668;23.396;2023-05-23T09:11:57;94931.47;;;20.55;100.00
8059;BME280;4072;42.668;23.396;2023-05-23T09:14:26;94909.84;;;20.70;100.00
8059;BME280;4072;42.668;23.396;2023-05-23T09:16:59;94935.59;;;21.15;100.00
8059;BME280;4072;42.668;23.396;2023-05-23T09:19:30;94893.00;;;21.21;100.00
8059;BME280;4072;42.668;23.396;2023-05-23T09:22:01;94921.41;;;21.66;100.00
8059;BME280;4072;42.668;23.396;2023-05-23T09:24:33;94924.75;;;21.96;100.00
8059;BME280;4072;42.668;23.396;2023-05-23T09:27:04;94929.16;;;21.86;93.38
8059;BME280;4072;42.668;23.396;2023-05-23T09:29:36;94925.41;;;22.02;86.64
8059;BME280;4072;42.668;23.396;2023-05-23T09:32:10;94902.97;;;21.80;82.13
8059;BME280;4072;42.668;23.396;2023-05-23T09:34:41;94926.84;;;21.90;71.91
8059;BME280;4072;42.668;23.396;2023-05-23T09:37:11;94924.25;;;22.42;74.64
8059;BME280;4072;42.668;23.396;2023-05-23T09:39:45;94912.13;;;22.77;73.43
8059;BME280;4072;42.668;23.396;2023-05-23T09:42:19;94925.59;;;23.20;66.05
8059;BME280;4072;42.668;23.396;2023-05-23T09:44:48;94913.06;;;23.19;62.60
8059;BME280;4072;42.668;23.396;2023-05-23T09:47:16;94882.72;;;23.32;60.28
8059;BME280;4072;42.668;23.396;2023-05-23T09:49:45;94909.75;;;23.93;57.45
8059;BME280;4072;42.668;23.396;2023-05-23T09:52:13;94909.38;;;24.09;53.41
8059;BME280;4072;42.668;23.396;2023-05-23T09:54:42;94909.44;;;23.96;52.53
8059;BME280;4072;42.668;23.396;2023-05-23T09:57:10;94900.19;;;23.94;53.11
8059;BME280;4072;42.668;23.396;2023-05-23T09:59:40;94893.91;;;23.60;54.87
8059;BME280;4072;42.668;23.396;2023-05-23T10:02:10;94893.91;;;24.14;55.98
8059;BME280;4072;42.668;23.396;2023-05-23T10:04:39;94904.38;;;23.74;56.54
8059;BME280;4072;42.668;23.396;2023-05-23T10:07:12;94840.84;;;22.94;54.57
8059;BME280;4072;42.668;23.396;2023-05-23T10:09:47;94906.25;;;23.46;54.30
8059;BME280;4072;42.668;23.396;2023-05-23T10:12:41;94903.97;;;23.37;56.06
8059;BME280;4072;42.668;23.396;2023-05-23T10:15:14;94884.84;;;23.00;48.07
8059;BME280;4072;42.668;23.396;2023-05-23T10:17:53;94908.53;;;23.08;53.01
8059;BME280;4072;42.668;23.396;2023-05-23T10:20:28;94906.28;;;23.20;53.11
8059;BME280;4072;42.668;23.396;2023-05-23T10:22:59;94847.53;;;22.72;58.06
8059;BME280;4072;42.668;23.396;2023-05-23T10:25:27;94896.53;;;23.06;55.93
8059;BME280;4072;42.668;23.396;2023-05-23T10:27:56;94887.50;;;23.31;57.65
8059;BME280;4072;42.668;23.396;2023-05-23T10:30:30;94887.94;;;23.22;52.54
8059;BME280;4072;42.668;23.396;2023-05-23T10:32:59;94881.88;;;23.11;53.43
8059;BME280;4072;42.668;23.396;2023-05-23T10:35:38;94861.94;;;23.05;49.75
8059;BME280;4072;42.668;23.396;2023-05-23T10:38:17;94888.97;;;23.19;48.95
8059;BME280;4072;42.668;23.396;2023-05-23T10:40:52;94890.56;;;23.41;47.21
8059;BME280;4072;42.668;23.396;2023-05-23T10:43:26;94870.34;;;23.59;46.81
8059;BME280;4072;42.668;23.396;2023-05-23T10:45:57;94874.03;;;23.95;45.65
8059;BME280;4072;42.668;23.396;2023-05-23T10:48:31;94875.47;;;24.09;45.26
8059;BME280;4072;42.668;23.396;2023-05-23T10:51:05;94806.75;;;23.72;45.13
8059;BME280;4072;42.668;23.396;2023-05-23T10:53:35;94878.75;;;24.28;45.48
8059;BME280;4072;42.668;23.396;2023-05-23T10:56:06;94878.22;;;24.09;45.17
8059;BME280;4072;42.668;23.396;2023-05-23T10:58:36;94878.00;;;23.53;45.11
8059;BME280;4072;42.668;23.396;2023-05-23T11:01:06;94793.19;;;22.93;45.46
8059;BME280;4072;42.668;23.396;2023-05-23T11:03:36;94863.53;;;23.80;43.80
8059;BME280;4072;42.668;23.396;2023-05-23T11:06:05;94830.88;;;23.92;45.78
8059;BME280;4072;42.668;23.396;2023-05-23T11:08:37;94857.63;;;24.38;44.92
8059;BME280;4072;42.668;23.396;2023-05-23T11:11:14;94853.56;;;24.11;41.95
8059;BME280;4072;42.668;23.396;2023-05-23T11:13:56;94858.63;;;23.99;42.75
8059;BME280;4072;42.668;23.396;2023-05-23T11:16:29;94844.34;;;23.75;43.67
8059;BME280;4072;42.668;23.396;2023-05-23T11:19:22;94862.91;;;23.54;42.34
8059;BME280;4072;42.668;23.396;2023-05-23T11:21:53;94856.72;;;23.27;44.37
8059;BME280;4072;42.668;23.396;2023-05-23T11:24:21;94851.50;;;23.37;45.47
8059;BME280;4072;42.668;23.396;2023-05-23T11:26:54;94849.72;;;23.60;44.52
8059;BME280;4072;42.668;23.396;2023-05-23T11:29:26;94854.84;;;23.56;43.39
8059;BME280;4072;42.668;23.396;2023-05-23T11:31:56;94843.56;;;23.54;43.98
8059;BME280;4072;42.668;23.396;2023-05-23T11:34:25;94784.88;;;23.07;43.99
8059;BME280;4072;42.668;23.396;2023-05-23T11:36:54;94819.97;;;23.32;42.45
8059;BME280;4072;42.668;23.396;2023-05-23T11:39:23;94817.34;;;23.27;42.80
8059;BME280;4072;42.668;23.396;2023-05-23T11:42:00;94802.50;;;23.50;42.62
8059;BME280;4072;42.668;23.396;2023-05-23T11:44:28;94835.38;;;23.95;41.60
8059;BME280;4072;42.668;23.396;2023-05-23T11:47:02;94832.25;;;24.19;42.56
8059;BME280;4072;42.668;23.396;2023-05-23T11:49:31;94789.69;;;23.94;41.06
8059;BME280;4072;42.668;23.396;2023-05-23T11:52:00;94842.63;;;24.26;40.90
8059;BME280;4072;42.668;23.396;2023-05-23T11:54:28;94811.69;;;23.86;39.99
8059;BME280;4072;42.668;23.396;2023-05-23T11:56:57;94837.91;;;23.93;42.50
8059;BME280;4072;42.668;23.396;2023-05-23T11:59:25;94757.69;;;23.24;40.28
8059;BME280;4072;42.668;23.396;2023-05-23T12:01:54;94819.88;;;23.79;41.99
8059;BME280;4072;42.668;23.396;2023-05-23T12:04:24;94794.03;;;24.10;42.18
8059;BME280;4072;42.668;23.396;2023-05-23T12:06:53;94817.16;;;24.20;42.51
8059;BME280;4072;42.668;23.396;2023-05-23T12:09:21;94812.03;;;23.83;43.95
8059;BME280;4072;42.668;23.396;2023-05-23T12:11:49;94819.03;;;23.84;44.14
8059;BME280;4072;42.668;23.396;2023-05-23T12:14:17;94816.00;;;23.74;43.34
8059;BME280;4072;42.668;23.396;2023-05-23T12:16:45;94820.16;;;23.68;42.39
8059;BME280;4072;42.668;23.396;2023-05-23T12:19:15;94786.06;;;23.45;44.02
8059;BME280;4072;42.668;23.396;2023-05-23T12:21:46;94802.59;;;23.78;43.56
8059;BME280;4072;42.668;23.396;2023-05-23T12:24:16;94798.16;;;23.96;42.96
8059;BME280;4072;42.668;23.396;2023-05-23T12:26:51;94792.41;;;24.14;42.72
8059;BME280;4072;42.668;23.396;2023-05-23T12:29:20;94785.66;;;24.23;39.91
8059;BME280;4072;42.668;23.396;2023-05-23T12:31:49;94788.75;;;24.19;40.50
8059;BME280;4072;42.668;23.396;2023-05-23T12:34:21;94790.50;;;24.30;38.80
8059;BME280;4072;42.668;23.396;2023-05-23T12:36:53;94782.22;;;24.30;39.33
8059;BME280;4072;42.668;23.396;2023-05-23T12:39:42;94782.59;;;24.34;41.71
8059;BME280;4072;42.668;23.396;2023-05-23T12:42:10;94791.13;;;24.43;39.14
8059;BME280;4072;42.668;23.396;2023-05-23T12:44:40;94783.19;;;24.12;37.97
8059;BME280;4072;42.668;23.396;2023-05-23T12:47:09;94778.25;;;24.18;36.98
8059;BME280;4072;42.668;23.396;2023-05-23T12:49:37;94747.69;;;23.95;37.33
8059;BME280;4072;42.668;23.396;2023-05-23T12:52:06;94775.94;;;24.29;36.05
8059;BME280;4072;42.668;23.396;2023-05-23T12:54:34;94770.69;;;24.18;35.65
8059;BME280;4072;42.668;23.396;2023-05-23T12:57:02;94769.97;;;24.18;35.94
8059;BME280;4072;42.668;23.396;2023-05-23T12:59:30;94771.00;;;24.35;36.07
8059;BME280;4072;42.668;23.396;2023-05-23T13:01:58;94751.50;;;24.13;35.66
8059;BME280;4072;42.668;23.396;2023-05-23T13:04:27;94765.53;;;24.15;35.95
8059;BME280;4072;42.668;23.396;2023-05-23T13:06:57;94761.47;;;24.16;34.72
8059;BME280;4072;42.668;23.396;2023-05-23T13:09:27;94751.88;;;24.17;35.02
8059;BME280;4072;42.668;23.396;2023-05-23T13:11:55;94738.47;;;24.21;34.06
8059;BME280;4072;42.668;23.396;2023-05-23T13:14:24;94764.44;;;24.18;33.62
8059;BME280;4072;42.668;23.396;2023-05-23T13:16:52;94752.97;;;24.14;33.71
8059;BME280;4072;42.668;23.396;2023-05-23T13:19:20;94736.00;;;24.10;35.92